Time;durP1;ratioP1;P1;durP2;ratioP2;P2;SDS_P1;SDS_P2;PMS_P1;PMS_P2;Temp;Humidity;BMP_temperature;BMP_pressure;BME280_temperature;BME280_humidity;BME280_pressure;Samples;Min_cycle;Max_cycle;Signal;HPM_P1;HPM_P2
2023/04/02 00:01:13;;;;;;;;;;;;;;;5.99;100.00;101070.59;5069637;28;20252;-71
2023/04/02 00:03:41;;;;;;;;;;;;;;;5.97;100.00;101073.34;5042333;28;20261;-69
2023/04/02 00:06:24;;;;;;;;;;;;;;;5.84;100.00;101070.47;5072865;28;19920;-69
2023/04/02 00:08:53;;;;;;;;;;;;;;;5.81;100.00;101086.66;5064969;28;19927;-68
2023/04/02 00:11:25;;;;;;;;;;;;;;;5.67;100.00;101084.72;5072551;28;19926;-69
2023/04/02 00:13:51;;;;;;;;;;;;;;;5.75;100.00;101089.66;5056632;28;19920;-69
2023/04/02 00:16:17;;;;;;;;;;;;;;;5.78;100.00;101091.28;5073724;28;19931;-68
2023/04/02 00:18:45;;;;;;;;;;;;;;;5.78;100.00;101091.28;5072912;28;19970;-71
2023/04/02 00:21:34;;;;;;;;;;;;;;;5.77;100.00;101106.41;5070605;28;20042;-68
2023/04/02 00:24:00;;;;;;;;;;;;;;;5.78;100.00;101104.59;5057473;28;20158;-71
2023/04/02 00:26:44;;;;;;;;;;;;;;;5.77;100.00;101116.19;5068801;28;19926;-70
2023/04/02 00:29:10;;;;;;;;;;;;;;;5.75;100.00;101121.63;5063948;28;20027;-69
2023/04/02 00:31:36;;;;;;;;;;;;;;;5.72;100.00;101127.09;5052382;28;19920;-69
2023/04/02 00:34:03;;;;;;;;;;;;;;;5.64;100.00;101115.97;5070601;28;20511;-68
2023/04/02 00:36:29;;;;;;;;;;;;;;;5.74;100.00;101129.66;5067367;28;20322;-69
2023/04/02 00:38:55;;;;;;;;;;;;;;;5.72;100.00;101127.09;5067778;28;19943;-68
2023/04/02 00:41:26;;;;;;;;;;;;;;;5.63;100.00;101128.44;5049832;28;19920;-69
2023/04/02 00:43:51;;;;;;;;;;;;;;;5.76;100.00;101142.00;5070586;28;19924;-69
2023/04/02 00:46:17;;;;;;;;;;;;;;;5.69;100.00;101133.44;5067720;28;19920;-68
2023/04/02 00:49:01;;;;;;;;;;;;;;;5.64;100.00;101143.50;5065606;28;19924;-68
2023/04/02 00:51:30;;;;;;;;;;;;;;;5.60;100.00;101149.03;5069081;28;19920;-68
2023/04/02 00:53:55;;;;;;;;;;;;;;;5.60;100.00;101155.25;5035126;28;19920;-68
2023/04/02 00:56:28;;;;;;;;;;;;;;;5.62;100.00;101155.16;5068325;28;19939;-68
2023/04/02 00:58:54;;;;;;;;;;;;;;;5.74;100.00;101156.31;5055491;28;20397;-68
2023/04/02 01:01:22;;;;;;;;;;;;;;;5.67;100.00;101167.31;5070105;28;20021;-69
2023/04/02 01:03:52;;;;;;;;;;;;;;;5.65;100.00;101178.97;5050320;28;19920;-69
2023/04/02 01:06:18;;;;;;;;;;;;;;;5.55;100.00;101173.25;5056208;28;19973;-69
2023/04/02 01:08:43;;;;;;;;;;;;;;;5.59;100.00;101176.63;5054786;28;19920;-69
2023/04/02 01:11:22;;;;;;;;;;;;;;;5.46;100.00;101184.38;5071872;28;20313;-68
2023/04/02 01:14:13;;;;;;;;;;;;;;;5.48;100.00;101188.72;5070198;28;21182;-68
2023/04/02 01:16:49;;;;;;;;;;;;;;;5.38;100.00;101187.44;5050752;28;20213;-68
2023/04/02 01:19:34;;;;;;;;;;;;;;;5.49;100.00;101195.75;5072731;28;19943;-68
2023/04/02 01:21:59;;;;;;;;;;;;;;;5.50;100.00;101201.94;5076588;28;19920;-69
2023/04/02 01:24:28;;;;;;;;;;;;;;;5.43;100.00;101192.56;5075121;28;19920;-69
2023/04/02 01:26:56;;;;;;;;;;;;;;;5.49;100.00;101193.09;5057469;28;19970;-69
2023/04/02 01:29:24;;;;;;;;;;;;;;;5.21;100.00;101202.47;5053917;28;19931;-69
2023/04/02 01:31:50;;;;;;;;;;;;;;;5.38;100.00;101203.41;5076719;28;19920;-69
2023/04/02 01:34:18;;;;;;;;;;;;;;;5.31;100.00;101216.19;5074654;28;19942;-69
2023/04/02 01:36:55;;;;;;;;;;;;;;;5.36;100.00;101221.25;5072327;28;19947;-69
2023/04/02 01:39:20;;;;;;;;;;;;;;;5.27;100.00;101221.75;5071985;28;19920;-69
2023/04/02 01:41:51;;;;;;;;;;;;;;;5.12;100.00;101226.00;5075371;28;19943;-69
2023/04/02 01:44:19;;;;;;;;;;;;;;;5.17;100.00;101230.16;5069534;28;19916;-69
2023/04/02 01:46:46;;;;;;;;;;;;;;;5.12;100.00;101224.19;5066195;28;20367;-70
2023/04/02 01:49:13;;;;;;;;;;;;;;;5.08;100.00;101241.25;5068115;28;20395;-70
2023/04/02 01:51:39;;;;;;;;;;;;;;;5.15;100.00;101237.38;5049807;28;19916;-69
2023/04/02 01:54:05;;;;;;;;;;;;;;;5.02;100.00;101242.41;5072821;28;19920;-70
2023/04/02 01:56:30;;;;;;;;;;;;;;;5.06;100.00;101245.78;5068694;28;19930;-69
2023/04/02 01:58:55;;;;;;;;;;;;;;;5.03;100.00;101254.78;5069448;28;19920;-70
2023/04/02 02:01:22;;;;;;;;;;;;;;;5.01;100.00;101248.69;5071022;28;19919;-70
2023/04/02 02:03:47;;;;;;;;;;;;;;;5.16;100.00;101254.22;5053207;28;20253;-71
2023/04/02 02:06:13;;;;;;;;;;;;;;;5.04;100.00;101256.53;5064979;28;19967;-69
2023/04/02 02:08:48;;;;;;;;;;;;;;;5.11;100.00;101267.72;5054673;28;20412;-69
2023/04/02 02:11:15;;;;;;;;;;;;;;;5.02;100.00;101271.69;5059956;28;20018;-69
2023/04/02 02:13:53;;;;;;;;;;;;;;;5.03;100.00;101281.41;5058953;28;19934;-70
2023/04/02 02:16:18;;;;;;;;;;;;;;;5.05;100.00;101284.88;5042566;28;20298;-70
2023/04/02 02:18:50;;;;;;;;;;;;;;;5.08;100.00;101289.16;5050699;28;19936;-69
2023/04/02 02:21:20;;;;;;;;;;;;;;;5.16;100.00;101304.78;5056033;28;19959;-70
2023/04/02 02:23:45;;;;;;;;;;;;;;;5.10;100.00;101304.16;5045282;28;20293;-70
2023/04/02 02:26:10;;;;;;;;;;;;;;;5.05;100.00;101315.91;5045193;28;19926;-70
2023/04/02 02:28:36;;;;;;;;;;;;;;;5.16;100.00;101316.28;5048455;28;20322;-69
2023/04/02 02:31:02;;;;;;;;;;;;;;;5.01;100.00;101317.03;5051075;28;19924;-69
2023/04/02 02:33:46;;;;;;;;;;;;;;;5.06;100.00;101336.28;5056364;28;19927;-69
2023/04/02 02:36:12;;;;;;;;;;;;;;;4.97;100.00;101334.06;5069198;28;19928;-69
2023/04/02 02:38:43;;;;;;;;;;;;;;;4.94;100.00;101321.75;5063875;28;19927;-69
2023/04/02 02:41:17;;;;;;;;;;;;;;;4.90;100.00;101342.31;5067329;28;20286;-69
2023/04/02 02:43:45;;;;;;;;;;;;;;;4.95;100.00;101340.31;5065001;28;19927;-70
2023/04/02 02:46:12;;;;;;;;;;;;;;;4.85;100.00;101339.00;5060013;28;19946;-70
2023/04/02 02:48:38;;;;;;;;;;;;;;;4.77;100.00;101350.00;5065715;28;19968;-69
2023/04/02 02:51:04;;;;;;;;;;;;;;;4.83;100.00;101358.66;5060713;28;20024;-69
2023/04/02 02:53:29;;;;;;;;;;;;;;;4.75;100.00;101359.84;5065113;28;19927;-70
2023/04/02 02:55:55;;;;;;;;;;;;;;;4.73;100.00;101364.38;5061413;28;19931;-69
2023/04/02 02:58:26;;;;;;;;;;;;;;;4.84;100.00;101369.22;5045906;28;20009;-70
2023/04/02 03:00:51;;;;;;;;;;;;;;;4.71;100.00;101374.22;5045677;28;20019;-69
2023/04/02 03:03:18;;;;;;;;;;;;;;;4.73;100.00;101375.00;5030602;28;19924;-69
2023/04/02 03:05:43;;;;;;;;;;;;;;;4.76;100.00;101390.00;5058502;28;19931;-72
2023/04/02 03:08:23;;;;;;;;;;;;;;;4.68;100.00;101394.78;5062855;28;19924;-70
2023/04/02 03:10:54;;;;;;;;;;;;;;;4.65;100.00;101398.41;5064202;28;19920;-70
2023/04/02 03:13:20;;;;;;;;;;;;;;;4.66;100.00;101392.16;5073327;28;20007;-69
2023/04/02 03:15:48;;;;;;;;;;;;;;;4.56;100.00;101401.50;5069743;28;19928;-70
2023/04/02 03:18:16;;;;;;;;;;;;;;;4.59;100.00;101404.88;5075069;28;19924;-69
2023/04/02 03:20:52;;;;;;;;;;;;;;;4.51;100.00;101414.97;5052807;28;20052;-69
2023/04/02 03:23:31;;;;;;;;;;;;;;;4.59;100.00;101417.34;5052619;28;19926;-70
2023/04/02 03:26:23;;;;;;;;;;;;;;;4.51;100.00;101417.63;5055527;28;20062;-69
2023/04/02 03:29:15;;;;;;;;;;;;;;;4.48;100.00;101423.13;5066244;28;19920;-69
2023/04/02 03:31:41;;;;;;;;;;;;;;;4.50;100.00;101431.91;5065033;28;20290;-69
2023/04/02 03:34:09;;;;;;;;;;;;;;;4.53;100.00;101433.53;5054229;28;19939;-69
2023/04/02 03:36:55;;;;;;;;;;;;;;;4.52;100.00;101445.13;5070089;28;20378;-69
2023/04/02 03:39:23;;;;;;;;;;;;;;;4.58;100.00;101443.06;5059273;28;20347;-69
2023/04/02 03:41:56;;;;;;;;;;;;;;;4.55;100.00;101458.28;5073214;28;19923;-69
2023/04/02 03:44:24;;;;;;;;;;;;;;;4.62;100.00;101467.75;5035056;28;19920;-69
2023/04/02 03:46:56;;;;;;;;;;;;;;;4.68;100.00;101467.44;5066624;28;19920;-68
2023/04/02 03:49:24;;;;;;;;;;;;;;;4.55;100.00;101476.91;5073263;28;20393;-69
2023/04/02 03:52:04;;;;;;;;;;;;;;;4.47;100.00;101479.88;5068356;28;20379;-69
2023/04/02 03:54:29;;;;;;;;;;;;;;;4.43;100.00;101496.91;5054882;28;19920;-69
2023/04/02 03:56:54;;;;;;;;;;;;;;;4.38;100.00;101498.88;5072436;28;19935;-68
2023/04/02 03:59:29;;;;;;;;;;;;;;;4.36;100.00;101504.28;5049559;28;19955;-68
2023/04/02 04:01:58;;;;;;;;;;;;;;;4.36;100.00;101504.28;5066184;28;19924;-70
2023/04/02 04:04:24;;;;;;;;;;;;;;;4.37;100.00;101507.78;5068325;28;19920;-71
2023/04/02 04:06:51;;;;;;;;;;;;;;;4.10;100.00;101513.28;5053500;28;19926;-69
2023/04/02 04:09:22;;;;;;;;;;;;;;;4.04;100.00;101522.38;5048613;28;20359;-70
2023/04/02 04:11:48;;;;;;;;;;;;;;;4.07;100.00;101524.91;5049130;28;19920;-70
2023/04/02 04:14:14;;;;;;;;;;;;;;;4.06;100.00;101531.16;5034533;28;19966;-70
2023/04/02 04:16:58;;;;;;;;;;;;;;;4.13;100.00;101548.56;5067746;28;19924;-70
2023/04/02 04:19:28;;;;;;;;;;;;;;;4.07;100.00;101548.84;5066961;28;21133;-69
2023/04/02 04:21:59;;;;;;;;;;;;;;;4.08;100.00;101542.59;5049544;28;20320;-71
2023/04/02 04:24:24;;;;;;;;;;;;;;;4.04;100.00;101555.13;5066433;28;20342;-70
2023/04/02 04:26:53;;;;;;;;;;;;;;;4.14;100.00;101552.09;5051415;28;20403;-70
2023/04/02 04:29:39;;;;;;;;;;;;;;;4.02;100.00;101564.94;5069244;28;19968;-69
2023/04/02 04:32:19;;;;;;;;;;;;;;;3.99;100.00;101570.38;5066475;28;19928;-68
2023/04/02 04:34:50;;;;;;;;;;;;;;;3.89;100.00;101566.34;5062848;28;20381;-70
2023/04/02 04:37:28;;;;;;;;;;;;;;;3.89;100.00;101582.28;5053569;28;20046;-70
2023/04/02 04:39:54;;;;;;;;;;;;;;;3.88;100.00;101584.06;5065771;28;19931;-70
2023/04/02 04:42:21;;;;;;;;;;;;;;;3.88;100.00;101584.06;5046734;28;19963;-70
2023/04/02 04:44:52;;;;;;;;;;;;;;;4.03;100.00;101600.38;5047522;28;19942;-70
2023/04/02 04:47:23;;;;;;;;;;;;;;;3.91;100.00;101607.00;5064386;28;20371;-70
2023/04/02 04:49:52;;;;;;;;;;;;;;;3.98;100.00;101607.63;5065602;28;19920;-70
2023/04/02 04:52:21;;;;;;;;;;;;;;;3.98;100.00;101607.63;5068244;28;19920;-71
2023/04/02 04:54:46;;;;;;;;;;;;;;;4.01;100.00;101618.16;5051389;28;19943;-70
2023/04/02 04:57:20;;;;;;;;;;;;;;;3.90;100.00;101626.53;5065366;28;19935;-70
2023/04/02 04:59:47;;;;;;;;;;;;;;;3.93;100.00;101637.06;5047104;28;19919;-72
2023/04/02 05:02:22;;;;;;;;;;;;;;;3.91;100.00;101641.56;5047430;28;19927;-70
2023/04/02 05:04:48;;;;;;;;;;;;;;;3.95;100.00;101647.59;5049191;28;19920;-70
2023/04/02 05:07:17;;;;;;;;;;;;;;;3.95;100.00;101648.50;5064003;28;20373;-70
2023/04/02 05:10:02;;;;;;;;;;;;;;;4.00;100.00;101656.28;5068747;28;20647;-70
2023/04/02 05:12:39;;;;;;;;;;;;;;;4.01;100.00;101663.34;5052445;28;19920;-71
2023/04/02 05:15:07;;;;;;;;;;;;;;;4.00;100.00;101664.25;5054334;28;19919;-71
2023/04/02 05:17:45;;;;;;;;;;;;;;;4.11;100.00;101669.16;5069441;28;19928;-72
2023/04/02 05:20:15;;;;;;;;;;;;;;;3.96;100.00;101668.81;5052211;28;19924;-71
2023/04/02 05:22:48;;;;;;;;;;;;;;;3.91;100.00;101668.13;5068469;28;20283;-71
2023/04/02 05:25:24;;;;;;;;;;;;;;;3.84;100.00;101667.44;5065466;28;19924;-70
2023/04/02 05:27:52;;;;;;;;;;;;;;;3.78;100.00;101674.78;5068351;28;21711;-70
2023/04/02 05:30:20;;;;;;;;;;;;;;;3.81;100.00;101678.22;5067940;28;19923;-71
2023/04/02 05:32:46;;;;;;;;;;;;;;;3.77;100.00;101689.00;5071232;28;19920;-71
2023/04/02 05:35:15;;;;;;;;;;;;;;;3.70;100.00;101696.31;5068156;28;19920;-69
2023/04/02 05:37:41;;;;;;;;;;;;;;;3.63;100.00;101700.09;5052507;28;20155;-69
2023/04/02 05:40:12;;;;;;;;;;;;;;;3.85;100.00;101692.25;5050573;28;20357;-71
2023/04/02 05:42:37;;;;;;;;;;;;;;;3.66;100.00;101707.97;5071910;28;19920;-71
2023/04/02 05:45:15;;;;;;;;;;;;;;;3.56;100.00;101712.72;5068756;28;20546;-71
2023/04/02 05:47:42;;;;;;;;;;;;;;;3.46;100.00;101709.53;5067245;28;19920;-71
2023/04/02 05:50:07;;;;;;;;;;;;;;;3.57;100.00;101712.69;5047833;28;19963;-71
2023/04/02 05:52:39;;;;;;;;;;;;;;;3.40;100.00;101717.69;5062713;28;20382;-69
2023/04/02 05:55:21;;;;;;;;;;;;;;;3.50;100.00;101728.88;5066514;28;20398;-70
2023/04/02 05:57:58;;;;;;;;;;;;;;;3.45;100.00;101743.16;5068746;28;19924;-71
2023/04/02 06:00:38;;;;;;;;;;;;;;;3.47;100.00;101747.53;5061541;28;19920;-70
2023/04/02 06:03:06;;;;;;;;;;;;;;;3.43;100.00;101747.69;5063259;28;19998;-71
2023/04/02 06:05:35;;;;;;;;;;;;;;;3.29;100.00;101756.09;5063923;28;19920;-69
2023/04/02 06:08:10;;;;;;;;;;;;;;;3.37;100.00;101770.88;5064548;28;19966;-70
2023/04/02 06:10:36;;;;;;;;;;;;;;;3.44;100.00;101777.75;5046878;28;19920;-71
2023/04/02 06:13:08;;;;;;;;;;;;;;;3.36;100.00;101779.75;5058751;28;19927;-70
2023/04/02 06:15:34;;;;;;;;;;;;;;;3.26;100.00;101788.03;5060722;28;19966;-71
2023/04/02 06:18:03;;;;;;;;;;;;;;;3.37;100.00;101797.44;5044953;28;19919;-71
2023/04/02 06:20:29;;;;;;;;;;;;;;;3.41;100.00;101801.72;5062750;28;20023;-72
2023/04/02 06:22:56;;;;;;;;;;;;;;;3.49;100.00;101805.00;5062449;28;19920;-70
2023/04/02 06:25:34;;;;;;;;;;;;;;;3.36;100.00;101806.31;5045255;28;20044;-72
2023/04/02 06:28:00;;;;;;;;;;;;;;;3.32;100.00;101809.97;5040889;28;20393;-70
2023/04/02 06:30:36;;;;;;;;;;;;;;;3.32;100.00;101820.59;5047261;28;19920;-71
2023/04/02 06:33:01;;;;;;;;;;;;;;;3.27;100.00;101816.31;5066850;28;20410;-70
2023/04/02 06:35:26;;;;;;;;;;;;;;;3.41;100.00;101828.28;5052232;28;19920;-70
2023/04/02 06:37:52;;;;;;;;;;;;;;;3.38;100.00;101834.56;5049567;28;19924;-71
2023/04/02 06:40:20;;;;;;;;;;;;;;;3.26;100.00;101833.16;5052819;28;19916;-71
2023/04/02 06:42:45;;;;;;;;;;;;;;;3.40;100.00;101840.69;5068565;28;20314;-69
2023/04/02 06:45:23;;;;;;;;;;;;;;;3.28;100.00;101846.38;5050615;28;19923;-70
2023/04/02 06:47:48;;;;;;;;;;;;;;;3.21;100.00;101845.69;5055214;28;20259;-71
2023/04/02 06:50:40;;;;;;;;;;;;;;;3.29;100.00;101841.03;5061968;28;19920;-69
2023/04/02 06:53:08;;;;;;;;;;;;;;;3.29;100.00;101853.44;5042877;28;19951;-69
2023/04/02 06:55:52;;;;;;;;;;;;;;;3.46;100.00;101860.88;5059361;28;20306;-69
2023/04/02 06:58:17;;;;;;;;;;;;;;;3.48;100.00;101861.69;5065180;28;19920;-70
2023/04/02 07:00:44;;;;;;;;;;;;;;;3.52;100.00;101881.91;5027193;28;19927;-69
2023/04/02 07:03:15;;;;;;;;;;;;;;;3.48;100.00;101876.72;5060697;28;19985;-70
2023/04/02 07:05:40;;;;;;;;;;;;;;;3.42;100.00;101889.31;5048534;28;19920;-70
2023/04/02 07:08:06;;;;;;;;;;;;;;;3.36;100.00;101900.13;5060396;28;19982;-70
2023/04/02 07:10:31;;;;;;;;;;;;;;;3.28;100.00;101908.31;5066478;28;20024;-71
2023/04/02 07:12:57;;;;;;;;;;;;;;;3.23;100.00;101918.19;5068968;28;20636;-69
2023/04/02 07:15:24;;;;;;;;;;;;;;;3.28;100.00;101921.59;5065978;28;20503;-70
2023/04/02 07:17:50;;;;;;;;;;;;;;;3.36;100.00;101933.75;5048898;28;19920;-71
2023/04/02 07:20:23;;;;;;;;;;;;;;;3.27;100.00;101941.09;5066607;28;20014;-70
2023/04/02 07:22:48;;;;;;;;;;;;;;;3.17;100.00;101917.50;5052862;28;19920;-71
2023/04/02 07:25:13;;;;;;;;;;;;;;;3.31;100.00;101947.16;5068140;28;19920;-70
2023/04/02 07:27:38;;;;;;;;;;;;;;;3.37;100.00;101943.44;5066469;28;20345;-71
2023/04/02 07:30:04;;;;;;;;;;;;;;;3.28;100.00;101947.25;5063148;28;19919;-70
2023/04/02 07:32:29;;;;;;;;;;;;;;;3.25;100.00;101952.63;5068218;28;19924;-69
2023/04/02 07:34:54;;;;;;;;;;;;;;;3.20;100.00;101952.78;5067104;28;20756;-69
2023/04/02 07:37:20;;;;;;;;;;;;;;;3.23;100.00;101960.66;5068648;28;20409;-69
2023/04/02 07:39:45;;;;;;;;;;;;;;;3.32;100.00;101966.59;5066532;28;20447;-70
2023/04/02 07:42:10;;;;;;;;;;;;;;;3.49;100.00;101958.13;5068196;28;20615;-72
2023/04/02 07:44:35;;;;;;;;;;;;;;;3.38;100.00;101966.41;5046098;28;20081;-71
2023/04/02 07:47:00;;;;;;;;;;;;;;;3.51;100.00;101966.94;5060517;28;20018;-70
2023/04/02 07:49:26;;;;;;;;;;;;;;;3.51;100.00;101967.81;5054506;28;19967;-69
2023/04/02 07:51:52;;;;;;;;;;;;;;;3.37;100.00;101973.53;5060681;28;19982;-70
2023/04/02 07:54:17;;;;;;;;;;;;;;;3.55;100.00;101980.09;5060636;28;20462;-71
2023/04/02 07:56:42;;;;;;;;;;;;;;;3.65;100.00;101977.13;5063872;28;19928;-71
2023/04/02 07:59:07;;;;;;;;;;;;;;;3.75;100.00;101979.47;5068770;28;20253;-71
2023/04/02 08:01:34;;;;;;;;;;;;;;;3.70;100.00;101984.06;5069221;28;20083;-70
2023/04/02 08:03:59;;;;;;;;;;;;;;;3.47;100.00;101947.56;5062966;28;19931;-71
2023/04/02 08:06:24;;;;;;;;;;;;;;;3.58;100.00;101995.03;5051801;28;20016;-69
2023/04/02 08:08:49;;;;;;;;;;;;;;;3.69;100.00;101995.59;5062286;28;20339;-71
2023/04/02 08:11:15;;;;;;;;;;;;;;;3.56;100.00;102012.81;5055729;28;19969;-71
2023/04/02 08:13:40;;;;;;;;;;;;;;;3.56;100.00;102018.13;5064346;28;20269;-70
2023/04/02 08:16:05;;;;;;;;;;;;;;;3.63;100.00;102019.69;5062476;28;19944;-71
2023/04/02 08:18:31;;;;;;;;;;;;;;;3.78;100.00;102028.09;5069148;28;20384;-72
2023/04/02 08:20:56;;;;;;;;;;;;;;;3.89;100.00;102028.66;5062124;28;19920;-70
2023/04/02 08:23:22;;;;;;;;;;;;;;;3.89;100.00;102034.81;5065178;28;19924;-69
2023/04/02 08:25:47;;;;;;;;;;;;;;;3.86;100.00;102032.25;5064509;28;20817;-69
2023/04/02 08:28:12;;;;;;;;;;;;;;;3.87;100.00;102041.13;5063654;28;19924;-70
2023/04/02 08:30:38;;;;;;;;;;;;;;;3.83;100.00;102039.47;5062262;28;20010;-71
2023/04/02 08:33:03;;;;;;;;;;;;;;;3.94;100.00;102047.09;5060083;28;19935;-71
2023/04/02 08:35:28;;;;;;;;;;;;;;;4.02;100.00;102047.75;5052644;28;19920;-71
2023/04/02 08:37:53;;;;;;;;;;;;;;;3.85;100.00;102057.09;5051434;28;19920;-71
2023/04/02 08:40:21;;;;;;;;;;;;;;;3.78;100.00;102054.66;5066746;28;19941;-70
2023/04/02 08:42:51;;;;;;;;;;;;;;;3.86;100.00;102079.22;5067316;28;19961;-71
2023/04/02 08:45:17;;;;;;;;;;;;;;;3.93;100.00;102083.47;5069203;28;20360;-70
2023/04/02 08:47:43;;;;;;;;;;;;;;;3.79;100.00;102093.59;5066947;28;21422;-70
2023/04/02 08:50:08;;;;;;;;;;;;;;;3.94;100.00;102093.16;5064024;28;19982;-71
2023/04/02 08:52:35;;;;;;;;;;;;;;;3.95;100.00;102100.22;5065065;28;19919;-71
2023/04/02 08:55:01;;;;;;;;;;;;;;;3.85;100.00;102106.72;5067365;28;19985;-71
2023/04/02 08:57:36;;;;;;;;;;;;;;;3.76;100.00;102107.84;5065686;28;19947;-71
2023/04/02 09:00:08;;;;;;;;;;;;;;;3.81;100.00;102108.59;5062324;28;20382;-71
2023/04/02 09:02:38;;;;;;;;;;;;;;;3.92;100.00;102116.25;5048863;28;19924;-71
2023/04/02 09:05:05;;;;;;;;;;;;;;;3.85;100.00;102114.69;5043682;28;19928;-71
2023/04/02 09:07:31;;;;;;;;;;;;;;;3.79;100.00;102125.47;5031772;28;19924;-70
2023/04/02 09:09:57;;;;;;;;;;;;;;;3.84;100.00;102134.19;5062082;28;20367;-71
2023/04/02 09:12:23;;;;;;;;;;;;;;;3.71;100.00;102131.88;5071465;28;19935;-71
2023/04/02 09:14:53;;;;;;;;;;;;;;;3.67;100.00;102134.66;5052437;28;19927;-71
2023/04/02 09:17:22;;;;;;;;;;;;;;;3.78;100.00;102139.69;5074570;28;19924;-71
2023/04/02 09:19:57;;;;;;;;;;;;;;;3.68;100.00;102141.72;5076502;28;19931;-70
2023/04/02 09:22:24;;;;;;;;;;;;;;;3.85;100.00;102143.91;5076887;28;19931;-71
2023/04/02 09:24:53;;;;;;;;;;;;;;;3.97;100.00;102143.56;5063271;28;19920;-71
2023/04/02 09:27:22;;;;;;;;;;;;;;;3.94;100.00;102150.75;5064575;28;19916;-71
2023/04/02 09:29:48;;;;;;;;;;;;;;;3.99;100.00;102156.81;5068129;28;20787;-70
2023/04/02 09:32:14;;;;;;;;;;;;;;;4.12;100.00;102155.50;5066636;28;19920;-73
2023/04/02 09:34:39;;;;;;;;;;;;;;;4.10;100.00;102157.38;5070698;28;20374;-72
2023/04/02 09:37:08;;;;;;;;;;;;;;;4.18;100.00;102170.44;5069022;28;19963;-72
2023/04/02 09:39:34;;;;;;;;;;;;;;;4.26;100.00;102172.84;5069025;28;19924;-72
2023/04/02 09:41:59;;;;;;;;;;;;;;;4.38;100.00;102177.78;5044786;28;19920;-72
2023/04/02 09:44:25;;;;;;;;;;;;;;;4.50;100.00;102185.41;5050175;28;19934;-72
2023/04/02 09:46:58;;;;;;;;;;;;;;;4.54;100.00;102190.63;5054764;28;20430;-71
2023/04/02 09:49:24;;;;;;;;;;;;;;;4.39;100.00;102192.84;5073245;28;20322;-73
2023/04/02 09:52:22;;;;;;;;;;;;;;;4.35;100.00;102173.44;5052584;28;20377;-69
2023/04/02 09:55:05;;;;;;;;;;;;;;;4.65;100.00;102201.81;5038086;28;19917;-71
2023/04/02 09:57:32;;;;;;;;;;;;;;;4.69;100.00;102205.25;5068201;28;20149;-71
2023/04/02 10:00:08;;;;;;;;;;;;;;;4.77;100.00;102201.44;5070541;28;19930;-71
2023/04/02 10:02:33;;;;;;;;;;;;;;;4.75;100.00;102215.72;5063224;28;19924;-73
2023/04/02 10:05:02;;;;;;;;;;;;;;;4.71;100.00;102217.59;5061064;28;19920;-72
2023/04/02 10:07:53;;;;;;;;;;;;;;;4.55;100.00;102232.28;5065200;28;20342;-72
2023/04/02 10:10:20;;;;;;;;;;;;;;;4.64;100.00;102230.22;5072243;28;20251;-73
2023/04/02 10:13:03;;;;;;;;;;;;;;;4.77;100.00;102232.47;5046338;28;20358;-72
2023/04/02 10:15:30;;;;;;;;;;;;;;;4.95;100.00;102234.59;5058069;28;19920;-73
2023/04/02 10:18:05;;;;;;;;;;;;;;;5.11;100.00;102228.75;5055158;28;19973;-72
2023/04/02 10:20:31;;;;;;;;;;;;;;;5.10;100.00;102246.53;5067022;28;20509;-72
2023/04/02 10:22:56;;;;;;;;;;;;;;;5.01;100.00;102244.16;5068434;28;19920;-71
2023/04/02 10:25:22;;;;;;;;;;;;;;;5.24;100.00;102256.75;5072861;28;19926;-71
2023/04/02 10:27:54;;;;;;;;;;;;;;;5.25;100.00;102262.91;5049210;28;19955;-71
2023/04/02 10:30:22;;;;;;;;;;;;;;;5.10;100.00;102245.66;5063671;28;19997;-70
2023/04/02 10:32:58;;;;;;;;;;;;;;;5.19;100.00;102264.00;5041981;28;20466;-71
2023/04/02 10:35:25;;;;;;;;;;;;;;;5.24;100.00;102266.50;5061567;28;20145;-72
2023/04/02 10:37:59;;;;;;;;;;;;;;;5.30;100.00;102270.78;5069939;28;19928;-72
2023/04/02 10:40:24;;;;;;;;;;;;;;;5.31;100.00;102272.50;5070343;28;19924;-71
2023/04/02 10:42:50;;;;;;;;;;;;;;;5.43;100.00;102263.25;5082581;28;19923;-72
2023/04/02 10:45:17;;;;;;;;;;;;;;;5.44;100.00;102264.97;5066646;28;20109;-71
2023/04/02 10:47:58;;;;;;;;;;;;;;;5.17;100.00;102222.34;5045744;28;20566;-71
2023/04/02 10:50:32;;;;;;;;;;;;;;;5.47;100.00;102275.53;5063047;28;19928;-72
2023/04/02 10:53:01;;;;;;;;;;;;;;;5.70;100.00;102285.41;5052166;28;19934;-73
2023/04/02 10:55:28;;;;;;;;;;;;;;;5.58;100.00;102281.38;5060759;28;19927;-72
2023/04/02 10:57:53;;;;;;;;;;;;;;;5.69;100.00;102289.84;5056617;28;20489;-73
2023/04/02 11:00:18;;;;;;;;;;;;;;;5.75;100.00;102295.91;5033372;28;19920;-71
2023/04/02 11:02:59;;;;;;;;;;;;;;;5.79;100.00;102292.22;5058068;28;19919;-71
2023/04/02 11:05:26;;;;;;;;;;;;;;;5.74;100.00;102299.50;5063936;28;19924;-71
2023/04/02 11:07:53;;;;;;;;;;;;;;;5.62;100.00;102303.44;5057335;28;19920;-72
2023/04/02 11:10:19;;;;;;;;;;;;;;;5.73;100.00;102301.31;5060732;28;20275;-72
2023/04/02 11:12:55;;;;;;;;;;;;;;;5.61;100.00;102302.59;5071731;28;20440;-70
2023/04/02 11:15:20;;;;;;;;;;;;;;;5.60;100.00;102305.28;5058658;28;20397;-71
2023/04/02 11:17:46;;;;;;;;;;;;;;;5.84;100.00;102309.78;5067595;28;19924;-72
2023/04/02 11:20:30;;;;;;;;;;;;;;;6.00;100.00;102320.84;5063607;28;20011;-71
2023/04/02 11:23:08;;;;;;;;;;;;;;;5.67;100.00;102320.16;5080385;28;20046;-73
2023/04/02 11:25:33;;;;;;;;;;;;;;;5.77;100.00;102326.06;5038487;28;20235;-72
2023/04/02 11:28:11;;;;;;;;;;;;;;;5.86;100.00;102313.28;5055392;28;19920;-71
2023/04/02 11:30:36;;;;;;;;;;;;;;;6.24;100.00;102331.56;5056189;28;20108;-71
2023/04/02 11:33:20;;;;;;;;;;;;;;;6.03;100.00;102329.66;5037814;28;19956;-71
2023/04/02 11:35:45;;;;;;;;;;;;;;;5.90;100.00;102329.16;5066527;28;20079;-72
2023/04/02 11:38:10;;;;;;;;;;;;;;;6.04;100.00;102336.72;5078525;28;19934;-71
2023/04/02 11:40:39;;;;;;;;;;;;;;;6.43;100.00;102354.94;5056708;28;19963;-72
2023/04/02 11:43:24;;;;;;;;;;;;;;;6.26;100.00;102353.72;5077965;28;19974;-72
2023/04/02 11:45:51;;;;;;;;;;;;;;;6.08;100.00;102349.03;5029722;28;20336;-72
2023/04/02 11:48:17;;;;;;;;;;;;;;;6.55;100.00;102358.94;5054232;28;19920;-72
2023/04/02 11:50:42;;;;;;;;;;;;;;;7.43;100.00;102350.25;5053479;28;19927;-73
2023/04/02 11:53:11;;;;;;;;;;;;;;;8.80;92.54;102350.63;5048621;28;19920;-71
2023/04/02 11:55:36;;;;;;;;;;;;;;;9.40;85.69;102351.44;5063837;28;19920;-72
2023/04/02 11:58:08;;;;;;;;;;;;;;;10.89;77.99;102354.56;5054497;28;19931;-71
2023/04/02 12:00:56;;;;;;;;;;;;;;;11.85;71.15;102358.06;5071767;28;19924;-72
2023/04/02 12:03:53;;;;;;;;;;;;;;;12.43;67.40;102360.06;5048623;28;19998;-72
2023/04/02 12:06:24;;;;;;;;;;;;;;;13.29;60.95;102359.13;5032141;28;19920;-73
2023/04/02 12:09:13;;;;;;;;;;;;;;;12.68;58.28;102361.22;5071754;28;19931;-73
2023/04/02 12:11:39;;;;;;;;;;;;;;;12.45;58.96;102366.22;5048241;28;20023;-73
2023/04/02 12:14:23;;;;;;;;;;;;;;;12.02;56.46;102363.44;5072063;28;19923;-72
2023/04/02 12:16:48;;;;;;;;;;;;;;;12.20;56.90;102370.41;5066052;28;20378;-72
2023/04/02 12:19:13;;;;;;;;;;;;;;;11.55;57.71;102368.78;5068781;28;19931;-72
2023/04/02 12:21:39;;;;;;;;;;;;;;;12.34;59.20;102372.28;5066496;28;20050;-73
2023/04/02 12:24:05;;;;;;;;;;;;;;;13.22;55.99;102363.22;5064056;28;20437;-72
2023/04/02 12:26:30;;;;;;;;;;;;;;;13.75;55.59;102373.28;5070238;28;20018;-72
2023/04/02 12:29:16;;;;;;;;;;;;;;;15.10;49.98;102378.34;5048996;28;19919;-72
2023/04/02 12:31:45;;;;;;;;;;;;;;;14.42;51.33;102379.59;5065967;28;19923;-72
2023/04/02 12:34:15;;;;;;;;;;;;;;;12.58;52.82;102383.34;5050203;28;20631;-73
2023/04/02 12:36:50;;;;;;;;;;;;;;;13.19;54.79;102388.53;5054402;28;19939;-72
2023/04/02 12:39:15;;;;;;;;;;;;;;;13.72;49.84;102373.50;5062646;28;19929;-72
2023/04/02 12:41:41;;;;;;;;;;;;;;;14.37;49.24;102388.00;5067421;28;19920;-72
2023/04/02 12:44:12;;;;;;;;;;;;;;;13.17;48.71;102387.75;5065201;28;19944;-73
2023/04/02 12:46:37;;;;;;;;;;;;;;;13.91;50.13;102386.59;5066567;28;20294;-73
2023/04/02 12:49:06;;;;;;;;;;;;;;;14.37;48.04;102390.69;5046508;28;20141;-72